JZA628 KCHS-CYYZ
Flight info
| Callsign | JZA628 |
|---|---|
| Flight time | 1h 41m |
| Altitude | 37000 |
| Route | MLTRE3 JYMSE DCT RYCKI Q69 RICCS DCT OXMAN LINNG3 |
| Aircraft | CRJ9/M-SDFGIRWY/S |
Departure
| Time | 2026-05-04 00:56 |
|---|---|
| Airport | Charleston International Airport (KCHS) |
Arrival
| Time | 2026-05-04 02:37 |
|---|---|
| Airport | Toronto Pearson International Airport (CYYZ) |
| Time | Latitude | Longitude | Altitude | Speed | Heading |
|---|---|---|---|---|---|
| 2026-05-04 00:22 | 32.88634 | -80.03851 | 39 ft | 0 kts | 128° |
| 2026-05-04 00:39 | 32.88644 | -80.03864 | 39 ft | 4 kts | 140° |
| 2026-05-04 00:40 | 32.88662 | -80.03880 | 39 ft | 4 kts | 153° |
| 2026-05-04 00:40 | 32.88684 | -80.03882 | 39 ft | 4 kts | 203° |
| 2026-05-04 00:40 | 32.88703 | -80.03865 | 39 ft | 2 kts | 227° |
| 2026-05-04 00:40 | 32.88703 | -80.03864 | 39 ft | 0 kts | 227° |
| 2026-05-04 00:46 | 32.88701 | -80.03867 | 39 ft | 2 kts | 227° |
| 2026-05-04 00:46 | 32.88680 | -80.03893 | 39 ft | 7 kts | 225° |
| 2026-05-04 00:47 | 32.88636 | -80.03942 | 39 ft | 10 kts | 223° |
| 2026-05-04 00:47 | 32.88637 | -80.04012 | 39 ft | 11 kts | 314° |
| 2026-05-04 00:47 | 32.88677 | -80.04092 | 39 ft | 13 kts | 256° |
| 2026-05-04 00:47 | 32.88620 | -80.04189 | 39 ft | 16 kts | 232° |
| 2026-05-04 00:48 | 32.88547 | -80.04299 | 39 ft | 18 kts | 231° |
| 2026-05-04 00:48 | 32.88481 | -80.04414 | 39 ft | 15 kts | 259° |
| 2026-05-04 00:48 | 32.88485 | -80.04535 | 39 ft | 15 kts | 286° |
| 2026-05-04 00:48 | 32.88554 | -80.04621 | 39 ft | 15 kts | 334° |
| 2026-05-04 00:49 | 32.88653 | -80.04676 | 39 ft | 16 kts | 335° |
| 2026-05-04 00:49 | 32.88754 | -80.04695 | 39 ft | 15 kts | 22° |
| 2026-05-04 00:49 | 32.88861 | -80.04638 | 39 ft | 18 kts | 24° |
| 2026-05-04 00:49 | 32.88979 | -80.04573 | 39 ft | 19 kts | 24° |
| 2026-05-04 00:50 | 32.89098 | -80.04511 | 39 ft | 19 kts | 24° |
| 2026-05-04 00:50 | 32.89221 | -80.04465 | 39 ft | 19 kts | 1° |
| 2026-05-04 00:50 | 32.89351 | -80.04461 | 39 ft | 19 kts | 1° |
| 2026-05-04 00:50 | 32.89482 | -80.04459 | 39 ft | 19 kts | 1° |
| 2026-05-04 00:51 | 32.89617 | -80.04455 | 39 ft | 20 kts | 1° |
| 2026-05-04 00:51 | 32.89759 | -80.04452 | 39 ft | 21 kts | 1° |
| 2026-05-04 00:51 | 32.89907 | -80.04449 | 39 ft | 21 kts | 1° |
| 2026-05-04 00:51 | 32.90055 | -80.04446 | 39 ft | 21 kts | 1° |
| 2026-05-04 00:52 | 32.90204 | -80.04443 | 39 ft | 21 kts | 1° |
| 2026-05-04 00:52 | 32.90353 | -80.04439 | 39 ft | 21 kts | 1° |
| 2026-05-04 00:52 | 32.90478 | -80.04489 | 39 ft | 19 kts | 328° |
| 2026-05-04 00:52 | 32.90590 | -80.04573 | 39 ft | 19 kts | 328° |
| 2026-05-04 00:53 | 32.90702 | -80.04659 | 39 ft | 19 kts | 327° |
| 2026-05-04 00:53 | 32.90815 | -80.04745 | 39 ft | 19 kts | 328° |
| 2026-05-04 00:53 | 32.90926 | -80.04830 | 39 ft | 19 kts | 327° |
| 2026-05-04 00:53 | 32.91040 | -80.04916 | 39 ft | 19 kts | 327° |
| 2026-05-04 00:54 | 32.91151 | -80.04997 | 39 ft | 16 kts | 339° |
| 2026-05-04 00:54 | 32.91226 | -80.04937 | 39 ft | 14 kts | 56° |
| 2026-05-04 00:54 | 32.91279 | -80.04839 | 40 ft | 13 kts | 57° |
| 2026-05-04 00:54 | 32.91276 | -80.04790 | 40 ft | 3 kts | 146° |
| 2026-05-04 00:55 | 32.91255 | -80.04774 | 40 ft | 16 kts | 148° |
| 2026-05-04 00:55 | 32.90948 | -80.04541 | 40 ft | 90 kts | 147° |
| 2026-05-04 00:55 | 32.90233 | -80.04002 | 39 ft | 152 kts | 148° |
| 2026-05-04 00:55 | 32.89273 | -80.03265 | 528 ft | 169 kts | 148° |
| 2026-05-04 00:56 | 32.88376 | -80.02328 | 1292 ft | 181 kts | 128° |
| 2026-05-04 00:56 | 32.87998 | -80.00798 | 1826 ft | 209 kts | 92° |
| 2026-05-04 00:56 | 32.88428 | -79.99086 | 2466 ft | 231 kts | 59° |
| 2026-05-04 00:56 | 32.89544 | -79.97662 | 3200 ft | 240 kts | 36° |
| 2026-05-04 00:57 | 32.91042 | -79.96557 | 3752 ft | 269 kts | 31° |
| 2026-05-04 00:57 | 32.92809 | -79.95571 | 4290 ft | 293 kts | 7° |
| 2026-05-04 00:57 | 32.94905 | -79.95587 | 4911 ft | 310 kts | 352° |
| 2026-05-04 00:57 | 32.96969 | -79.95956 | 6255 ft | 290 kts | 347° |
| 2026-05-04 00:58 | 32.98797 | -79.96755 | 7524 ft | 273 kts | 323° |
| 2026-05-04 00:58 | 33.00265 | -79.98104 | 8592 ft | 269 kts | 320° |
| 2026-05-04 00:58 | 33.01760 | -79.99510 | 9472 ft | 272 kts | 321° |
| 2026-05-04 00:58 | 33.03260 | -80.00868 | 10295 ft | 275 kts | 322° |
| 2026-05-04 00:59 | 33.04838 | -80.02204 | 11041 ft | 280 kts | 323° |
| 2026-05-04 00:59 | 33.05887 | -80.03062 | 11234 ft | 295 kts | 323° |
| 2026-05-04 00:59 | 33.07654 | -80.04460 | 11593 ft | 313 kts | 324° |
| 2026-05-04 00:59 | 33.09514 | -80.05935 | 12020 ft | 328 kts | 324° |
| 2026-05-04 01:00 | 33.11418 | -80.07442 | 12643 ft | 335 kts | 324° |
| 2026-05-04 01:00 | 33.13378 | -80.09006 | 13413 ft | 340 kts | 323° |
| 2026-05-04 01:00 | 33.15358 | -80.10590 | 14157 ft | 344 kts | 322° |
| 2026-05-04 01:00 | 33.17358 | -80.12212 | 14849 ft | 347 kts | 322° |
| 2026-05-04 01:01 | 33.19362 | -80.13847 | 15541 ft | 351 kts | 322° |
| 2026-05-04 01:01 | 33.21364 | -80.15481 | 16201 ft | 354 kts | 322° |
| 2026-05-04 01:01 | 33.23413 | -80.17154 | 16841 ft | 358 kts | 321° |
| 2026-05-04 01:01 | 33.25489 | -80.18851 | 17426 ft | 363 kts | 321° |
| 2026-05-04 01:02 | 33.27563 | -80.20545 | 18038 ft | 366 kts | 321° |
| 2026-05-04 01:02 | 33.29675 | -80.22274 | 18625 ft | 369 kts | 321° |
| 2026-05-04 01:02 | 33.31810 | -80.24013 | 19197 ft | 371 kts | 321° |
| 2026-05-04 01:02 | 33.34002 | -80.25696 | 19704 ft | 377 kts | 327° |
| 2026-05-04 01:03 | 33.36409 | -80.27021 | 20213 ft | 384 kts | 334° |
| 2026-05-04 01:03 | 33.38902 | -80.28120 | 20701 ft | 388 kts | 335° |
| 2026-05-04 01:03 | 33.41459 | -80.29192 | 21181 ft | 391 kts | 335° |
| 2026-05-04 01:03 | 33.44031 | -80.30285 | 21641 ft | 393 kts | 335° |
| 2026-05-04 01:04 | 33.46597 | -80.31443 | 22107 ft | 395 kts | 334° |
| 2026-05-04 01:04 | 33.49185 | -80.32632 | 22561 ft | 398 kts | 334° |
| 2026-05-04 01:04 | 33.51754 | -80.33812 | 22994 ft | 401 kts | 334° |
| 2026-05-04 01:04 | 33.54406 | -80.34942 | 23406 ft | 408 kts | 341° |
| 2026-05-04 01:05 | 33.57261 | -80.35452 | 23801 ft | 418 kts | 351° |
| 2026-05-04 01:05 | 33.60148 | -80.35543 | 24288 ft | 419 kts | 355° |
| 2026-05-04 01:05 | 33.63090 | -80.35502 | 24610 ft | 423 kts | 355° |
| 2026-05-04 01:05 | 33.66057 | -80.35458 | 24917 ft | 426 kts | 355° |
| 2026-05-04 01:06 | 33.69031 | -80.35484 | 25224 ft | 427 kts | 353° |
| 2026-05-04 01:06 | 33.71976 | -80.35566 | 25518 ft | 430 kts | 353° |
| 2026-05-04 01:06 | 33.74989 | -80.35637 | 25805 ft | 433 kts | 353° |
| 2026-05-04 01:06 | 33.78012 | -80.35706 | 26074 ft | 436 kts | 353° |
| 2026-05-04 01:07 | 33.81055 | -80.35777 | 26376 ft | 438 kts | 353° |
| 2026-05-04 01:07 | 33.84128 | -80.35848 | 26676 ft | 441 kts | 353° |
| 2026-05-04 01:07 | 33.87205 | -80.35919 | 26972 ft | 443 kts | 353° |
| 2026-05-04 01:07 | 33.90262 | -80.35989 | 27236 ft | 445 kts | 353° |
| 2026-05-04 01:08 | 33.93372 | -80.36061 | 27493 ft | 447 kts | 352° |
| 2026-05-04 01:08 | 33.96471 | -80.36131 | 27743 ft | 450 kts | 352° |
| 2026-05-04 01:08 | 33.99617 | -80.36202 | 27984 ft | 452 kts | 352° |
| 2026-05-04 01:08 | 34.02782 | -80.36275 | 28227 ft | 454 kts | 352° |
| 2026-05-04 01:09 | 34.05955 | -80.36349 | 28472 ft | 457 kts | 352° |
| 2026-05-04 01:09 | 34.08067 | -80.36398 | 28623 ft | 458 kts | 352° |
| 2026-05-04 01:09 | 34.12303 | -80.36494 | 29056 ft | 458 kts | 352° |
| 2026-05-04 01:09 | 34.15503 | -80.36565 | 29269 ft | 460 kts | 352° |
| 2026-05-04 01:10 | 34.17635 | -80.36613 | 29418 ft | 461 kts | 352° |
| 2026-05-04 01:10 | 34.20864 | -80.36687 | 29630 ft | 463 kts | 352° |
| 2026-05-04 01:10 | 34.24072 | -80.36762 | 29834 ft | 465 kts | 352° |
| 2026-05-04 01:10 | 34.27328 | -80.36835 | 30044 ft | 467 kts | 352° |
| 2026-05-04 01:11 | 34.30592 | -80.36909 | 30235 ft | 468 kts | 352° |
| 2026-05-04 01:11 | 34.33815 | -80.36983 | 30402 ft | 470 kts | 352° |
| 2026-05-04 01:11 | 34.37091 | -80.37062 | 30702 ft | 467 kts | 353° |
| 2026-05-04 01:11 | 34.40348 | -80.37145 | 30941 ft | 467 kts | 353° |
| 2026-05-04 01:12 | 34.43611 | -80.37214 | 31076 ft | 469 kts | 353° |
| 2026-05-04 01:12 | 34.46860 | -80.37280 | 31216 ft | 470 kts | 352° |
| 2026-05-04 01:12 | 34.50137 | -80.37354 | 31356 ft | 472 kts | 352° |
| 2026-05-04 01:12 | 34.53433 | -80.37430 | 31484 ft | 473 kts | 352° |
| 2026-05-04 01:13 | 34.56702 | -80.37505 | 31624 ft | 474 kts | 352° |
| 2026-05-04 01:13 | 34.60018 | -80.37583 | 31786 ft | 475 kts | 352° |
| 2026-05-04 01:13 | 34.63328 | -80.37663 | 32129 ft | 471 kts | 352° |
| 2026-05-04 01:13 | 34.66566 | -80.37734 | 32344 ft | 471 kts | 353° |
| 2026-05-04 01:14 | 34.69859 | -80.37808 | 32494 ft | 471 kts | 352° |
| 2026-05-04 01:14 | 34.73149 | -80.37886 | 32654 ft | 471 kts | 352° |
| 2026-05-04 01:14 | 34.76392 | -80.37960 | 32824 ft | 471 kts | 352° |
| 2026-05-04 01:14 | 34.79684 | -80.38037 | 32978 ft | 471 kts | 352° |
| 2026-05-04 01:15 | 34.82979 | -80.38115 | 33133 ft | 471 kts | 352° |
| 2026-05-04 01:15 | 34.86269 | -80.38191 | 33279 ft | 472 kts | 352° |
| 2026-05-04 01:15 | 34.89501 | -80.38265 | 33684 ft | 467 kts | 352° |
| 2026-05-04 01:15 | 34.92753 | -80.38339 | 33841 ft | 467 kts | 352° |
| 2026-05-04 01:16 | 34.96009 | -80.38413 | 34001 ft | 467 kts | 352° |
| 2026-05-04 01:16 | 34.99256 | -80.38488 | 34131 ft | 467 kts | 352° |
| 2026-05-04 01:16 | 35.02473 | -80.38564 | 34266 ft | 466 kts | 352° |
| 2026-05-04 01:17 | 35.09002 | -80.38717 | 34477 ft | 467 kts | 352° |
| 2026-05-04 01:17 | 35.12256 | -80.38795 | 34614 ft | 467 kts | 352° |
| 2026-05-04 01:17 | 35.15513 | -80.38872 | 34800 ft | 465 kts | 352° |
| 2026-05-04 01:17 | 35.18703 | -80.38942 | 35006 ft | 463 kts | 352° |
| 2026-05-04 01:18 | 35.21937 | -80.39016 | 35084 ft | 464 kts | 352° |
| 2026-05-04 01:18 | 35.25171 | -80.39092 | 35237 ft | 463 kts | 352° |
| 2026-05-04 01:18 | 35.28404 | -80.39169 | 35313 ft | 465 kts | 352° |
| 2026-05-04 01:18 | 35.31611 | -80.39244 | 35430 ft | 464 kts | 351° |
| 2026-05-04 01:19 | 35.34854 | -80.39321 | 35507 ft | 465 kts | 351° |
| 2026-05-04 01:19 | 35.38090 | -80.39398 | 35677 ft | 465 kts | 351° |
| 2026-05-04 01:19 | 35.41322 | -80.39474 | 35833 ft | 463 kts | 351° |
| 2026-05-04 01:19 | 35.44559 | -80.39550 | 35940 ft | 464 kts | 351° |
| 2026-05-04 01:20 | 35.47748 | -80.39628 | 36027 ft | 463 kts | 351° |
| 2026-05-04 01:20 | 35.54211 | -80.39778 | 36212 ft | 464 kts | 351° |
| 2026-05-04 01:21 | 35.60684 | -80.39933 | 36391 ft | 464 kts | 351° |
| 2026-05-04 01:21 | 35.63887 | -80.40008 | 36501 ft | 464 kts | 351° |
| 2026-05-04 01:21 | 35.67117 | -80.40086 | 36567 ft | 465 kts | 351° |
| 2026-05-04 01:21 | 35.70364 | -80.40163 | 36688 ft | 464 kts | 351° |
| 2026-05-04 01:22 | 35.73601 | -80.40239 | 36744 ft | 465 kts | 351° |
| 2026-05-04 01:22 | 35.76844 | -80.40316 | 36888 ft | 464 kts | 351° |
| 2026-05-04 01:22 | 35.80045 | -80.40394 | 36994 ft | 464 kts | 351° |
| 2026-05-04 01:23 | 35.86527 | -80.40551 | 37079 ft | 467 kts | 351° |
| 2026-05-04 01:23 | 35.93075 | -80.40703 | 37063 ft | 471 kts | 351° |
| 2026-05-04 01:24 | 35.99643 | -80.40862 | 37056 ft | 475 kts | 351° |
| 2026-05-04 01:24 | 36.06251 | -80.41017 | 37056 ft | 478 kts | 351° |
| 2026-05-04 01:25 | 36.12900 | -80.41176 | 37093 ft | 481 kts | 351° |
| 2026-05-04 01:25 | 36.19629 | -80.41333 | 37058 ft | 483 kts | 351° |
| 2026-05-04 01:26 | 36.26330 | -80.41493 | 37053 ft | 484 kts | 351° |
| 2026-05-04 01:26 | 36.33091 | -80.41655 | 37084 ft | 485 kts | 351° |
| 2026-05-04 01:27 | 36.39829 | -80.41784 | 37101 ft | 489 kts | 353° |
| 2026-05-04 01:27 | 36.46673 | -80.40975 | 37094 ft | 499 kts | 1° |
| 2026-05-04 01:28 | 36.53554 | -80.39409 | 37085 ft | 499 kts | 3° |
| 2026-05-04 01:28 | 36.60245 | -80.37978 | 37057 ft | 482 kts | 1° |
| 2026-05-04 01:29 | 36.66815 | -80.36644 | 37062 ft | 471 kts | 1° |
| 2026-05-04 01:29 | 36.73211 | -80.35340 | 37060 ft | 465 kts | 1° |
| 2026-05-04 01:30 | 36.79559 | -80.34360 | 37058 ft | 456 kts | 357° |
| 2026-05-04 01:30 | 36.85854 | -80.33554 | 37097 ft | 452 kts | 357° |
| 2026-05-04 01:31 | 36.92111 | -80.32676 | 37092 ft | 458 kts | 358° |
| 2026-05-04 01:31 | 36.98505 | -80.31749 | 37103 ft | 464 kts | 358° |
| 2026-05-04 01:32 | 37.04939 | -80.30833 | 37112 ft | 469 kts | 358° |
| 2026-05-04 01:32 | 37.11480 | -80.29902 | 37127 ft | 475 kts | 358° |
| 2026-05-04 01:33 | 37.18059 | -80.28957 | 37124 ft | 479 kts | 358° |
| 2026-05-04 01:33 | 37.24714 | -80.28004 | 37114 ft | 483 kts | 358° |
| 2026-05-04 01:34 | 37.31405 | -80.27044 | 37073 ft | 484 kts | 358° |
| 2026-05-04 01:34 | 37.38066 | -80.26077 | 37081 ft | 478 kts | 358° |
| 2026-05-04 01:35 | 37.44629 | -80.25139 | 37076 ft | 473 kts | 358° |
| 2026-05-04 01:35 | 37.51147 | -80.24196 | 37072 ft | 469 kts | 358° |
| 2026-05-04 01:36 | 37.57615 | -80.23265 | 37106 ft | 465 kts | 358° |
| 2026-05-04 01:36 | 37.63998 | -80.22340 | 37076 ft | 462 kts | 358° |
| 2026-05-04 01:37 | 37.70367 | -80.21406 | 37082 ft | 459 kts | 358° |
| 2026-05-04 01:37 | 37.76690 | -80.20455 | 37049 ft | 459 kts | 358° |
| 2026-05-04 01:38 | 37.83055 | -80.19504 | 37090 ft | 460 kts | 358° |
| 2026-05-04 01:38 | 37.89393 | -80.18558 | 37076 ft | 461 kts | 358° |
| 2026-05-04 01:39 | 37.95779 | -80.17601 | 37077 ft | 461 kts | 358° |
| 2026-05-04 01:39 | 38.02175 | -80.16636 | 37088 ft | 462 kts | 358° |
| 2026-05-04 01:40 | 38.08538 | -80.15685 | 37085 ft | 463 kts | 358° |
| 2026-05-04 01:40 | 38.14949 | -80.14726 | 37101 ft | 464 kts | 358° |
| 2026-05-04 01:41 | 38.21346 | -80.13757 | 37083 ft | 465 kts | 358° |
| 2026-05-04 01:41 | 38.27792 | -80.12786 | 37101 ft | 465 kts | 358° |
| 2026-05-04 01:42 | 38.34208 | -80.11809 | 37098 ft | 466 kts | 358° |
| 2026-05-04 01:42 | 38.40654 | -80.11120 | 37106 ft | 461 kts | 353° |
| 2026-05-04 01:43 | 38.47028 | -80.10885 | 37108 ft | 460 kts | 352° |
| 2026-05-04 01:43 | 38.53469 | -80.10586 | 37116 ft | 463 kts | 353° |
| 2026-05-04 01:44 | 38.59875 | -80.10235 | 37071 ft | 463 kts | 353° |
| 2026-05-04 01:44 | 38.66337 | -80.09880 | 37088 ft | 463 kts | 353° |
| 2026-05-04 01:45 | 38.72746 | -80.09527 | 37078 ft | 463 kts | 353° |
| 2026-05-04 01:45 | 38.82412 | -80.08991 | 37059 ft | 462 kts | 353° |
| 2026-05-04 01:46 | 38.88808 | -80.08647 | 37040 ft | 462 kts | 353° |
| 2026-05-04 01:46 | 38.95265 | -80.07915 | 37097 ft | 470 kts | 0° |
| 2026-05-04 01:47 | 39.01749 | -80.06387 | 37073 ft | 474 kts | 2° |
| 2026-05-04 01:47 | 39.08194 | -80.04889 | 37067 ft | 472 kts | 1° |
| 2026-05-04 01:48 | 39.14706 | -80.03488 | 37062 ft | 473 kts | 1° |
| 2026-05-04 01:48 | 39.21187 | -80.02094 | 37055 ft | 474 kts | 2° |
| 2026-05-04 01:49 | 39.27717 | -80.00675 | 37055 ft | 474 kts | 1° |
| 2026-05-04 01:49 | 39.34195 | -79.99268 | 37051 ft | 474 kts | 1° |
| 2026-05-04 01:50 | 39.40676 | -79.97870 | 37080 ft | 475 kts | 2° |
| 2026-05-04 01:50 | 39.47207 | -79.96435 | 37060 ft | 473 kts | 2° |
| 2026-05-04 01:51 | 39.53661 | -79.95022 | 37047 ft | 472 kts | 2° |
| 2026-05-04 01:51 | 39.60146 | -79.93608 | 37075 ft | 470 kts | 3° |
| 2026-05-04 01:52 | 39.66561 | -79.92200 | 37048 ft | 469 kts | 3° |
| 2026-05-04 01:52 | 39.73013 | -79.90782 | 37043 ft | 467 kts | 3° |
| 2026-05-04 01:53 | 39.79384 | -79.89385 | 37044 ft | 466 kts | 3° |
| 2026-05-04 01:53 | 39.85785 | -79.87969 | 37060 ft | 465 kts | 3° |
| 2026-05-04 01:54 | 39.92121 | -79.86571 | 37050 ft | 463 kts | 3° |
| 2026-05-04 01:54 | 39.98477 | -79.85165 | 37039 ft | 462 kts | 3° |
| 2026-05-04 01:55 | 40.04816 | -79.83761 | 37048 ft | 460 kts | 3° |
| 2026-05-04 01:55 | 40.11099 | -79.82368 | 37031 ft | 459 kts | 3° |
| 2026-05-04 01:56 | 40.17409 | -79.80965 | 37013 ft | 458 kts | 2° |
| 2026-05-04 01:56 | 40.23662 | -79.79575 | 37015 ft | 457 kts | 3° |
| 2026-05-04 01:57 | 40.29940 | -79.78177 | 37010 ft | 456 kts | 2° |
| 2026-05-04 01:57 | 40.36167 | -79.76782 | 37010 ft | 455 kts | 2° |
| 2026-05-04 01:58 | 40.42386 | -79.75392 | 37014 ft | 455 kts | 2° |
| 2026-05-04 01:58 | 40.48646 | -79.73987 | 37028 ft | 454 kts | 3° |
| 2026-05-04 01:59 | 40.54848 | -79.72588 | 37021 ft | 454 kts | 3° |
| 2026-05-04 01:59 | 40.60031 | -79.71421 | 37024 ft | 453 kts | 3° |
| 2026-05-04 02:00 | 40.67306 | -79.69779 | 37066 ft | 453 kts | 2° |
| 2026-05-04 02:00 | 40.72492 | -79.68613 | 37039 ft | 453 kts | 3° |
| 2026-05-04 02:01 | 40.78677 | -79.67205 | 37026 ft | 452 kts | 3° |
| 2026-05-04 02:01 | 40.84894 | -79.65799 | 37019 ft | 452 kts | 3° |
| 2026-05-04 02:02 | 40.91066 | -79.64398 | 37032 ft | 451 kts | 3° |
| 2026-05-04 02:02 | 40.97235 | -79.62988 | 37021 ft | 451 kts | 3° |
| 2026-05-04 02:03 | 41.03401 | -79.61584 | 37010 ft | 450 kts | 3° |
| 2026-05-04 02:03 | 41.09588 | -79.60169 | 37048 ft | 449 kts | 3° |
| 2026-05-04 02:04 | 41.15724 | -79.58758 | 37016 ft | 449 kts | 4° |
| 2026-05-04 02:04 | 41.21898 | -79.57343 | 37006 ft | 449 kts | 4° |
| 2026-05-04 02:05 | 41.28074 | -79.55921 | 37008 ft | 449 kts | 4° |
| 2026-05-04 02:05 | 41.34212 | -79.54512 | 37013 ft | 449 kts | 4° |
| 2026-05-04 02:06 | 41.40347 | -79.53090 | 36999 ft | 449 kts | 4° |
| 2026-05-04 02:06 | 41.46476 | -79.51674 | 36998 ft | 448 kts | 4° |
| 2026-05-04 02:07 | 41.52639 | -79.50246 | 37015 ft | 448 kts | 4° |
| 2026-05-04 02:07 | 41.58795 | -79.48815 | 37002 ft | 448 kts | 4° |
| 2026-05-04 02:08 | 41.64924 | -79.47394 | 36994 ft | 448 kts | 4° |
| 2026-05-04 02:08 | 41.71044 | -79.45965 | 36993 ft | 448 kts | 4° |
| 2026-05-04 02:09 | 41.77197 | -79.44529 | 37000 ft | 448 kts | 4° |
| 2026-05-04 02:09 | 41.83364 | -79.43087 | 36989 ft | 448 kts | 4° |
| 2026-05-04 02:10 | 41.89481 | -79.41652 | 36973 ft | 448 kts | 4° |
| 2026-05-04 02:10 | 41.95616 | -79.40215 | 36972 ft | 448 kts | 4° |
| 2026-05-04 02:11 | 41.98720 | -79.39486 | 36527 ft | 455 kts | 4° |
| 2026-05-04 02:11 | 42.01843 | -79.38747 | 35965 ft | 457 kts | 5° |
| 2026-05-04 02:11 | 42.04935 | -79.38013 | 35530 ft | 455 kts | 4° |
| 2026-05-04 02:11 | 42.08077 | -79.37275 | 34998 ft | 456 kts | 5° |
| 2026-05-04 02:12 | 42.11215 | -79.36576 | 34466 ft | 454 kts | 2° |
| 2026-05-04 02:12 | 42.14305 | -79.36172 | 33974 ft | 450 kts | 359° |
| 2026-05-04 02:12 | 42.17441 | -79.35994 | 33359 ft | 447 kts | 357° |
| 2026-05-04 02:12 | 42.20550 | -79.35858 | 32765 ft | 446 kts | 357° |
| 2026-05-04 02:13 | 42.23659 | -79.35666 | 32168 ft | 446 kts | 358° |
| 2026-05-04 02:13 | 42.26760 | -79.35411 | 31582 ft | 445 kts | 358° |
| 2026-05-04 02:13 | 42.29805 | -79.35169 | 31009 ft | 444 kts | 358° |
| 2026-05-04 02:13 | 42.32890 | -79.34922 | 30456 ft | 443 kts | 358° |
| 2026-05-04 02:14 | 42.35966 | -79.34675 | 29893 ft | 441 kts | 358° |
| 2026-05-04 02:14 | 42.39031 | -79.34424 | 29246 ft | 440 kts | 358° |
| 2026-05-04 02:14 | 42.42094 | -79.34180 | 28620 ft | 439 kts | 358° |
| 2026-05-04 02:14 | 42.45147 | -79.33931 | 28022 ft | 439 kts | 358° |
| 2026-05-04 02:15 | 42.48196 | -79.33688 | 27434 ft | 437 kts | 358° |
| 2026-05-04 02:15 | 42.51179 | -79.33443 | 26868 ft | 433 kts | 359° |
| 2026-05-04 02:15 | 42.54185 | -79.33202 | 26325 ft | 429 kts | 358° |
| 2026-05-04 02:15 | 42.57162 | -79.32963 | 25927 ft | 422 kts | 358° |
| 2026-05-04 02:16 | 42.60046 | -79.32733 | 25384 ft | 419 kts | 358° |
| 2026-05-04 02:16 | 42.62952 | -79.32507 | 24860 ft | 416 kts | 358° |
| 2026-05-04 02:16 | 42.65846 | -79.32255 | 24348 ft | 413 kts | 359° |
| 2026-05-04 02:16 | 42.68718 | -79.32018 | 23851 ft | 411 kts | 358° |
| 2026-05-04 02:17 | 42.71534 | -79.31794 | 23343 ft | 408 kts | 358° |
| 2026-05-04 02:17 | 42.74372 | -79.31560 | 22781 ft | 406 kts | 358° |
| 2026-05-04 02:17 | 42.77195 | -79.31333 | 22219 ft | 404 kts | 358° |
| 2026-05-04 02:17 | 42.79991 | -79.31107 | 21814 ft | 398 kts | 358° |
| 2026-05-04 02:18 | 42.82724 | -79.30909 | 21286 ft | 397 kts | 357° |
| 2026-05-04 02:18 | 42.85479 | -79.30903 | 20761 ft | 393 kts | 353° |
| 2026-05-04 02:18 | 42.88220 | -79.31144 | 20261 ft | 391 kts | 350° |
| 2026-05-04 02:18 | 42.90922 | -79.31481 | 19772 ft | 390 kts | 350° |
| 2026-05-04 02:19 | 42.93622 | -79.31818 | 19298 ft | 389 kts | 350° |
| 2026-05-04 02:19 | 42.96290 | -79.32125 | 18828 ft | 389 kts | 351° |
| 2026-05-04 02:19 | 42.98979 | -79.32401 | 18358 ft | 385 kts | 351° |
| 2026-05-04 02:19 | 43.01635 | -79.32665 | 17848 ft | 380 kts | 351° |
| 2026-05-04 02:20 | 43.04262 | -79.32932 | 17326 ft | 376 kts | 351° |
| 2026-05-04 02:20 | 43.06858 | -79.33191 | 16824 ft | 372 kts | 351° |
| 2026-05-04 02:20 | 43.09398 | -79.33445 | 16345 ft | 368 kts | 351° |
| 2026-05-04 02:20 | 43.11948 | -79.33702 | 15874 ft | 366 kts | 351° |
| 2026-05-04 02:21 | 43.14484 | -79.33955 | 15428 ft | 363 kts | 351° |
| 2026-05-04 02:21 | 43.16998 | -79.34205 | 14974 ft | 360 kts | 351° |
| 2026-05-04 02:21 | 43.19466 | -79.34453 | 14540 ft | 357 kts | 351° |
| 2026-05-04 02:21 | 43.21932 | -79.34703 | 14117 ft | 354 kts | 351° |
| 2026-05-04 02:22 | 43.24384 | -79.34950 | 13696 ft | 352 kts | 351° |
| 2026-05-04 02:22 | 43.26817 | -79.35196 | 13237 ft | 349 kts | 351° |
| 2026-05-04 02:22 | 43.29204 | -79.35454 | 12924 ft | 337 kts | 348° |
| 2026-05-04 02:22 | 43.31397 | -79.36217 | 12478 ft | 316 kts | 336° |
| 2026-05-04 02:23 | 43.33400 | -79.37311 | 12069 ft | 301 kts | 331° |
| 2026-05-04 02:23 | 43.35235 | -79.38488 | 11791 ft | 285 kts | 329° |
| 2026-05-04 02:23 | 43.36983 | -79.39635 | 11538 ft | 274 kts | 328° |
| 2026-05-04 02:23 | 43.38712 | -79.40797 | 11187 ft | 279 kts | 328° |
| 2026-05-04 02:24 | 43.40482 | -79.42000 | 10838 ft | 287 kts | 328° |
| 2026-05-04 02:24 | 43.42273 | -79.43210 | 10483 ft | 293 kts | 329° |
| 2026-05-04 02:24 | 43.44142 | -79.44429 | 10109 ft | 298 kts | 329° |
| 2026-05-04 02:24 | 43.46035 | -79.45654 | 9742 ft | 302 kts | 330° |
| 2026-05-04 02:25 | 43.47933 | -79.46879 | 9346 ft | 305 kts | 330° |
| 2026-05-04 02:25 | 43.49861 | -79.48120 | 8942 ft | 306 kts | 329° |
| 2026-05-04 02:25 | 43.51800 | -79.49374 | 8522 ft | 307 kts | 329° |
| 2026-05-04 02:25 | 43.53727 | -79.50622 | 8131 ft | 298 kts | 329° |
| 2026-05-04 02:26 | 43.55504 | -79.51747 | 8081 ft | 270 kts | 329° |
| 2026-05-04 02:26 | 43.57160 | -79.52727 | 8024 ft | 249 kts | 334° |
| 2026-05-04 02:26 | 43.58873 | -79.52781 | 7943 ft | 250 kts | 9° |
| 2026-05-04 02:26 | 43.60464 | -79.51957 | 7930 ft | 238 kts | 15° |
| 2026-05-04 02:27 | 43.61953 | -79.50962 | 7947 ft | 249 kts | 22° |
| 2026-05-04 02:27 | 43.63378 | -79.49410 | 8028 ft | 272 kts | 39° |
| 2026-05-04 02:27 | 43.64672 | -79.47466 | 7942 ft | 270 kts | 44° |
| 2026-05-04 02:27 | 43.65873 | -79.45523 | 7741 ft | 264 kts | 44° |
| 2026-05-04 02:28 | 43.67081 | -79.43608 | 7353 ft | 264 kts | 43° |
| 2026-05-04 02:28 | 43.68304 | -79.41756 | 6966 ft | 263 kts | 41° |
| 2026-05-04 02:28 | 43.69550 | -79.39949 | 6646 ft | 261 kts | 40° |
| 2026-05-04 02:28 | 43.70808 | -79.38145 | 6304 ft | 260 kts | 40° |
| 2026-05-04 02:29 | 43.72052 | -79.36328 | 5924 ft | 261 kts | 40° |
| 2026-05-04 02:29 | 43.73306 | -79.34509 | 5537 ft | 261 kts | 40° |
| 2026-05-04 02:29 | 43.74556 | -79.32681 | 5176 ft | 259 kts | 40° |
| 2026-05-04 02:29 | 43.75780 | -79.30899 | 4800 ft | 256 kts | 35° |
| 2026-05-04 02:30 | 43.77283 | -79.29836 | 4371 ft | 232 kts | 356° |
| 2026-05-04 02:30 | 43.78721 | -79.30178 | 4191 ft | 197 kts | 324° |
| 2026-05-04 02:30 | 43.79980 | -79.31036 | 4130 ft | 211 kts | 322° |
| 2026-05-04 02:30 | 43.81327 | -79.32071 | 4111 ft | 228 kts | 321° |
| 2026-05-04 02:31 | 43.82520 | -79.33322 | 4099 ft | 201 kts | 296° |
| 2026-05-04 02:31 | 43.82808 | -79.35080 | 3793 ft | 192 kts | 262° |
| 2026-05-04 02:31 | 43.82598 | -79.36947 | 3498 ft | 198 kts | 255° |
| 2026-05-04 02:31 | 43.81851 | -79.38577 | 3268 ft | 213 kts | 227° |
| 2026-05-04 02:32 | 43.80805 | -79.40132 | 3152 ft | 221 kts | 233° |
| 2026-05-04 02:32 | 43.79844 | -79.41669 | 3074 ft | 206 kts | 232° |
| 2026-05-04 02:32 | 43.78911 | -79.43067 | 3037 ft | 190 kts | 231° |
| 2026-05-04 02:32 | 43.78035 | -79.44380 | 3003 ft | 183 kts | 232° |
| 2026-05-04 02:33 | 43.77214 | -79.45595 | 3042 ft | 168 kts | 232° |
| 2026-05-04 02:33 | 43.76445 | -79.46726 | 3019 ft | 153 kts | 232° |
| 2026-05-04 02:33 | 43.75746 | -79.47754 | 3022 ft | 142 kts | 233° |
| 2026-05-04 02:33 | 43.75076 | -79.48740 | 2762 ft | 138 kts | 232° |
| 2026-05-04 02:34 | 43.74400 | -79.49749 | 2599 ft | 148 kts | 232° |
| 2026-05-04 02:34 | 43.73680 | -79.50794 | 2411 ft | 148 kts | 231° |
| 2026-05-04 02:34 | 43.72986 | -79.51788 | 2184 ft | 143 kts | 230° |
| 2026-05-04 02:34 | 43.72315 | -79.52762 | 2007 ft | 137 kts | 230° |
| 2026-05-04 02:35 | 43.71670 | -79.53706 | 1799 ft | 133 kts | 229° |
| 2026-05-04 02:35 | 43.71066 | -79.54559 | 1639 ft | 113 kts | 230° |
| 2026-05-04 02:35 | 43.70546 | -79.55309 | 1525 ft | 108 kts | 230° |
| 2026-05-04 02:35 | 43.70015 | -79.56104 | 1368 ft | 116 kts | 230° |
| 2026-05-04 02:36 | 43.69451 | -79.56948 | 1166 ft | 125 kts | 229° |
| 2026-05-04 02:36 | 43.68821 | -79.57862 | 982 ft | 133 kts | 226° |
| 2026-05-04 02:36 | 43.68181 | -79.58761 | 774 ft | 136 kts | 226° |
| 2026-05-04 02:36 | 43.67543 | -79.59695 | 601 ft | 130 kts | 227° |
| 2026-05-04 02:37 | 43.66982 | -79.60515 | 556 ft | 95 kts | 226° |
| 2026-05-04 02:37 | 43.66661 | -79.60984 | 560 ft | 48 kts | 226° |
| 2026-05-04 02:37 | 43.66486 | -79.61255 | 559 ft | 30 kts | 235° |
| 2026-05-04 02:37 | 43.66401 | -79.61503 | 557 ft | 27 kts | 251° |
| 2026-05-04 02:38 | 43.66395 | -79.61714 | 563 ft | 20 kts | 308° |
| 2026-05-04 02:38 | 43.66488 | -79.61841 | 559 ft | 19 kts | 316° |
| 2026-05-04 02:38 | 43.66588 | -79.61970 | 566 ft | 20 kts | 317° |
| 2026-05-04 02:38 | 43.66689 | -79.61977 | 565 ft | 15 kts | 39° |
| 2026-05-04 02:39 | 43.66771 | -79.61879 | 566 ft | 16 kts | 42° |
| 2026-05-04 02:39 | 43.66860 | -79.61767 | 566 ft | 19 kts | 42° |
| 2026-05-04 02:39 | 43.66969 | -79.61628 | 567 ft | 24 kts | 42° |
| 2026-05-04 02:39 | 43.67090 | -79.61476 | 571 ft | 23 kts | 42° |
| 2026-05-04 02:40 | 43.67207 | -79.61308 | 570 ft | 25 kts | 52° |
| 2026-05-04 02:40 | 43.67316 | -79.61111 | 560 ft | 27 kts | 53° |
| 2026-05-04 02:40 | 43.67419 | -79.60922 | 563 ft | 25 kts | 53° |
| 2026-05-04 02:40 | 43.67523 | -79.60753 | 567 ft | 22 kts | 46° |
| 2026-05-04 02:41 | 43.67614 | -79.60629 | 559 ft | 12 kts | 24° |
| 2026-05-04 02:41 | 43.67687 | -79.60662 | 566 ft | 12 kts | 330° |
| 2026-05-04 02:41 | 43.67755 | -79.60730 | 560 ft | 13 kts | 318° |
| 2026-05-04 02:41 | 43.67820 | -79.60815 | 560 ft | 13 kts | 316° |
| 2026-05-04 02:42 | 43.67877 | -79.60878 | 567 ft | 6 kts | 5° |
| 2026-05-04 02:42 | 43.67902 | -79.60853 | 565 ft | 3 kts | 46° |
| 2026-05-04 02:42 | 43.67908 | -79.60846 | 562 ft | 0 kts | 46° |